sensor_id;sensor_type;location;lat;lon;timestamp;temperature;humidity
23495;DHT22;26107;50.832;2.950;2024-03-23T00:58:13;8.80;99.90
23495;DHT22;26107;50.832;2.950;2024-03-23T01:13:14;8.60;99.90
23495;DHT22;26107;50.832;2.950;2024-03-23T01:28:14;8.70;99.90
23495;DHT22;26107;50.832;2.950;2024-03-23T01:43:15;8.50;99.90
23495;DHT22;26107;50.832;2.950;2024-03-23T01:58:15;8.50;99.90
23495;DHT22;26107;50.832;2.950;2024-03-23T02:13:17;8.10;99.90
23495;DHT22;26107;50.832;2.950;2024-03-23T02:28:22;8.10;99.90
23495;DHT22;26107;50.832;2.950;2024-03-23T02:43:23;8.00;99.90
23495;DHT22;26107;50.832;2.950;2024-03-23T02:58:23;7.80;99.90
23495;DHT22;26107;50.832;2.950;2024-03-23T03:13:24;7.60;99.90
23495;DHT22;26107;50.832;2.950;2024-03-23T03:28:29;7.40;99.90
23495;DHT22;26107;50.832;2.950;2024-03-23T03:43:31;7.50;99.90
23495;DHT22;26107;50.832;2.950;2024-03-23T03:58:36;7.60;99.90
23495;DHT22;26107;50.832;2.950;2024-03-23T04:13:37;7.40;99.90
23495;DHT22;26107;50.832;2.950;2024-03-23T04:28:40;7.20;99.90
23495;DHT22;26107;50.832;2.950;2024-03-23T04:43:40;7.00;99.90
23495;DHT22;26107;50.832;2.950;2024-03-23T04:58:41;6.50;99.90
23495;DHT22;26107;50.832;2.950;2024-03-23T05:13:42;6.50;99.90
23495;DHT22;26107;50.832;2.950;2024-03-23T05:28:42;6.40;99.90
23495;DHT22;26107;50.832;2.950;2024-03-23T05:43:44;6.50;99.90
23495;DHT22;26107;50.832;2.950;2024-03-23T05:58:44;6.40;99.90
23495;DHT22;26107;50.832;2.950;2024-03-23T06:13:45;6.30;99.90
23495;DHT22;26107;50.832;2.950;2024-03-23T06:28:47;6.30;99.90
23495;DHT22;26107;50.832;2.950;2024-03-23T06:43:47;6.20;99.90
23495;DHT22;26107;50.832;2.950;2024-03-23T06:58:48;6.30;99.90
23495;DHT22;26107;50.832;2.950;2024-03-23T07:13:55;6.50;99.90
23495;DHT22;26107;50.832;2.950;2024-03-23T07:28:55;6.60;99.90
23495;DHT22;26107;50.832;2.950;2024-03-23T07:43:58;6.90;99.90
23495;DHT22;26107;50.832;2.950;2024-03-23T07:59:01;7.10;99.90
23495;DHT22;26107;50.832;2.950;2024-03-23T08:14:03;7.10;99.90
23495;DHT22;26107;50.832;2.950;2024-03-23T08:29:04;7.30;99.90
23495;DHT22;26107;50.832;2.950;2024-03-23T08:44:07;7.40;99.90
23495;DHT22;26107;50.832;2.950;2024-03-23T08:59:08;7.40;99.90
23495;DHT22;26107;50.832;2.950;2024-03-23T09:14:09;7.90;99.90
23495;DHT22;26107;50.832;2.950;2024-03-23T09:29:09;8.10;99.90
23495;DHT22;26107;50.832;2.950;2024-03-23T09:44:11;8.50;99.90
23495;DHT22;26107;50.832;2.950;2024-03-23T09:59:14;8.50;99.90
23495;DHT22;26107;50.832;2.950;2024-03-23T10:14:29;8.50;99.90
23495;DHT22;26107;50.832;2.950;2024-03-23T10:29:30;8.70;99.90
23495;DHT22;26107;50.832;2.950;2024-03-23T10:44:30;8.60;99.90
23495;DHT22;26107;50.832;2.950;2024-03-23T10:59:36;9.20;99.90
23495;DHT22;26107;50.832;2.950;2024-03-23T11:14:37;9.00;99.90
23495;DHT22;26107;50.832;2.950;2024-03-23T11:29:37;9.00;99.90
23495;DHT22;26107;50.832;2.950;2024-03-23T11:44:41;9.50;99.90
23495;DHT22;26107;50.832;2.950;2024-03-23T11:59:42;9.00;99.90
23495;DHT22;26107;50.832;2.950;2024-03-23T12:14:44;8.80;99.90
23495;DHT22;26107;50.832;2.950;2024-03-23T12:29:45;9.30;99.90
23495;DHT22;26107;50.832;2.950;2024-03-23T12:44:51;8.80;99.90
23495;DHT22;26107;50.832;2.950;2024-03-23T12:59:55;9.40;99.90
23495;DHT22;26107;50.832;2.950;2024-03-23T13:14:56;10.20;99.90
23495;DHT22;26107;50.832;2.950;2024-03-23T13:29:57;10.10;99.90
23495;DHT22;26107;50.832;2.950;2024-03-23T13:44:58;10.00;99.90
23495;DHT22;26107;50.832;2.950;2024-03-23T13:59:58;10.50;99.90
23495;DHT22;26107;50.832;2.950;2024-03-23T14:14:59;10.70;99.90
23495;DHT22;26107;50.832;2.950;2024-03-23T14:30:02;10.10;99.90
23495;DHT22;26107;50.832;2.950;2024-03-23T14:45:03;11.00;99.90
23495;DHT22;26107;50.832;2.950;2024-03-23T15:00:06;11.00;99.90
23495;DHT22;26107;50.832;2.950;2024-03-23T15:15:10;11.40;99.90
23495;DHT22;26107;50.832;2.950;2024-03-23T15:30:15;10.90;99.90
23495;DHT22;26107;50.832;2.950;2024-03-23T15:45:15;10.70;99.90
23495;DHT22;26107;50.832;2.950;2024-03-23T16:00:16;10.90;99.90
23495;DHT22;26107;50.832;2.950;2024-03-23T16:15:17;12.30;99.90
23495;DHT22;26107;50.832;2.950;2024-03-23T16:30:24;10.20;99.90
23495;DHT22;26107;50.832;2.950;2024-03-23T16:45:25;10.40;99.90
23495;DHT22;26107;50.832;2.950;2024-03-23T17:00:25;10.70;99.90
23495;DHT22;26107;50.832;2.950;2024-03-23T17:15:26;10.20;99.90
23495;DHT22;26107;50.832;2.950;2024-03-23T17:30:27;10.40;99.90
23495;DHT22;26107;50.832;2.950;2024-03-23T17:45:27;10.20;99.90
23495;DHT22;26107;50.832;2.950;2024-03-23T18:00:28;9.40;99.90
23495;DHT22;26107;50.832;2.950;2024-03-23T18:15:29;9.00;99.90
23495;DHT22;26107;50.832;2.950;2024-03-23T18:30:29;8.80;99.90
23495;DHT22;26107;50.832;2.950;2024-03-23T18:45:30;8.50;99.90
23495;DHT22;26107;50.832;2.950;2024-03-23T19:00:33;8.30;99.90
23495;DHT22;26107;50.832;2.950;2024-03-23T19:15:34;8.40;99.90
23495;DHT22;26107;50.832;2.950;2024-03-23T19:30:34;7.90;99.90
23495;DHT22;26107;50.832;2.950;2024-03-23T19:45:35;7.70;99.90
23495;DHT22;26107;50.832;2.950;2024-03-23T20:00:35;7.60;99.90
23495;DHT22;26107;50.832;2.950;2024-03-23T20:15:36;7.30;99.90
23495;DHT22;26107;50.832;2.950;2024-03-23T20:30:37;7.10;99.90
23495;DHT22;26107;50.832;2.950;2024-03-23T20:45:38;7.10;99.90
23495;DHT22;26107;50.832;2.950;2024-03-23T21:00:41;6.80;99.90
23495;DHT22;26107;50.832;2.950;2024-03-23T21:15:53;6.70;99.90
23495;DHT22;26107;50.832;2.950;2024-03-23T21:31:03;6.80;99.90
23495;DHT22;26107;50.832;2.950;2024-03-23T21:46:04;6.60;99.90
23495;DHT22;26107;50.832;2.950;2024-03-23T22:01:05;6.50;99.90
23495;DHT22;26107;50.832;2.950;2024-03-23T22:16:06;6.60;99.90
23495;DHT22;26107;50.832;2.950;2024-03-23T22:31:07;6.60;99.90
23495;DHT22;26107;50.832;2.950;2024-03-23T22:46:08;6.70;99.90
23495;DHT22;26107;50.832;2.950;2024-03-23T23:01:09;6.60;99.90
23495;DHT22;26107;50.832;2.950;2024-03-23T23:16:12;6.70;99.90
23495;DHT22;26107;50.832;2.950;2024-03-23T23:31:13;6.70;99.90
23495;DHT22;26107;50.832;2.950;2024-03-23T23:46:21;6.90;99.90
